sensor_id;sensor_type;location;lat;lon;timestamp;noise_LAeq;noise_LA_min;noise_LA_max;noise_LA01;noise_LA95
71230;Laerm;57282;52.514;13.458;2022-08-30T00:00:34;60.20;31.59;77.97;;
71230;Laerm;57282;52.514;13.458;2022-08-30T00:03:19;59.50;31.10;76.32;;
71230;Laerm;57282;52.514;13.458;2022-08-30T00:05:46;40.85;31.10;58.50;;
71230;Laerm;57282;52.514;13.458;2022-08-30T00:08:13;60.15;33.48;78.33;;
71230;Laerm;57282;52.514;13.458;2022-08-30T00:10:41;55.66;31.64;74.97;;
71230;Laerm;57282;52.514;13.458;2022-08-30T00:13:12;56.30;30.87;71.34;;
71230;Laerm;57282;52.514;13.458;2022-08-30T00:15:41;40.32;30.68;54.66;;
71230;Laerm;57282;52.514;13.458;2022-08-30T00:18:08;36.29;30.94;44.21;;
71230;Laerm;57282;52.514;13.458;2022-08-30T00:20:37;61.35;33.02;76.48;;
71230;Laerm;57282;52.514;13.458;2022-08-30T00:23:05;53.41;33.55;73.17;;
71230;Laerm;57282;52.514;13.458;2022-08-30T00:25:32;39.64;30.47;54.93;;
71230;Laerm;57282;52.514;13.458;2022-08-30T00:27:59;38.05;30.97;50.85;;
71230;Laerm;57282;52.514;13.458;2022-08-30T00:30:29;38.27;30.69;47.87;;
71230;Laerm;57282;52.514;13.458;2022-08-30T00:32:56;56.89;32.94;77.12;;
71230;Laerm;57282;52.514;13.458;2022-08-30T00:35:25;36.78;30.26;48.37;;
71230;Laerm;57282;52.514;13.458;2022-08-30T00:37:52;49.37;30.95;67.29;;
71230;Laerm;57282;52.514;13.458;2022-08-30T00:40:20;39.72;30.82;54.37;;
71230;Laerm;57282;52.514;13.458;2022-08-30T00:42:48;54.69;30.88;74.46;;
71230;Laerm;57282;52.514;13.458;2022-08-30T00:45:20;38.39;30.76;46.85;;
71230;Laerm;57282;52.514;13.458;2022-08-30T00:47:50;58.34;30.47;77.04;;
71230;Laerm;57282;52.514;13.458;2022-08-30T00:50:22;56.01;30.40;74.27;;
71230;Laerm;57282;52.514;13.458;2022-08-30T00:52:55;58.14;30.87;75.79;;
71230;Laerm;57282;52.514;13.458;2022-08-30T00:55:24;61.88;32.36;81.21;;
71230;Laerm;57282;52.514;13.458;2022-08-30T00:57:57;35.93;30.91;46.88;;
71230;Laerm;57282;52.514;13.458;2022-08-30T01:00:25;38.56;30.76;52.98;;
71230;Laerm;57282;52.514;13.458;2022-08-30T01:02:53;43.48;30.55;63.61;;
71230;Laerm;57282;52.514;13.458;2022-08-30T01:05:21;56.36;30.96;74.49;;
71230;Laerm;57282;52.514;13.458;2022-08-30T01:07:49;58.11;32.63;75.64;;
71230;Laerm;57282;52.514;13.458;2022-08-30T01:10:17;37.29;30.03;53.71;;
71230;Laerm;57282;52.514;13.458;2022-08-30T01:12:45;55.70;31.64;71.35;;
71230;Laerm;57282;52.514;13.458;2022-08-30T01:15:14;60.82;30.71;79.16;;
71230;Laerm;57282;52.514;13.458;2022-08-30T01:17:43;57.04;32.01;75.24;;
71230;Laerm;57282;52.514;13.458;2022-08-30T01:20:17;58.55;30.84;75.39;;
71230;Laerm;57282;52.514;13.458;2022-08-30T01:23:04;51.37;30.60;68.92;;
71230;Laerm;57282;52.514;13.458;2022-08-30T01:25:35;43.51;31.76;61.54;;
71230;Laerm;57282;52.514;13.458;2022-08-30T01:28:06;35.45;30.63;46.69;;
71230;Laerm;57282;52.514;13.458;2022-08-30T01:30:37;38.97;30.28;50.04;;
71230;Laerm;57282;52.514;13.458;2022-08-30T01:33:06;57.17;30.60;74.31;;
71230;Laerm;57282;52.514;13.458;2022-08-30T01:35:43;38.87;30.63;49.33;;
71230;Laerm;57282;52.514;13.458;2022-08-30T01:38:17;38.29;29.98;48.97;;
71230;Laerm;57282;52.514;13.458;2022-08-30T01:40:47;44.71;31.57;60.77;;
71230;Laerm;57282;52.514;13.458;2022-08-30T01:43:17;59.39;30.42;78.96;;
71230;Laerm;57282;52.514;13.458;2022-08-30T01:45:44;38.45;30.98;49.02;;
71230;Laerm;57282;52.514;13.458;2022-08-30T01:48:12;58.60;31.00;77.05;;
71230;Laerm;57282;52.514;13.458;2022-08-30T01:50:40;56.96;31.59;74.36;;
71230;Laerm;57282;52.514;13.458;2022-08-30T01:53:08;46.01;31.04;64.10;;
71230;Laerm;57282;52.514;13.458;2022-08-30T01:55:36;60.67;30.85;78.82;;
71230;Laerm;57282;52.514;13.458;2022-08-30T01:58:03;60.55;31.35;79.87;;
71230;Laerm;57282;52.514;13.458;2022-08-30T02:00:30;43.34;31.20;62.55;;
71230;Laerm;57282;52.514;13.458;2022-08-30T02:02:57;53.82;31.79;73.52;;
71230;Laerm;57282;52.514;13.458;2022-08-30T02:05:24;51.07;30.02;69.49;;
71230;Laerm;57282;52.514;13.458;2022-08-30T02:07:51;37.04;30.48;50.27;;
71230;Laerm;57282;52.514;13.458;2022-08-30T02:10:19;38.01;30.84;56.26;;
71230;Laerm;57282;52.514;13.458;2022-08-30T02:12:47;60.83;30.82;80.64;;
71230;Laerm;57282;52.514;13.458;2022-08-30T02:15:14;37.35;30.28;50.85;;
71230;Laerm;57282;52.514;13.458;2022-08-30T02:17:41;54.40;31.02;73.59;;
71230;Laerm;57282;52.514;13.458;2022-08-30T02:20:10;51.55;32.12;70.68;;
71230;Laerm;57282;52.514;13.458;2022-08-30T02:22:37;39.40;31.45;54.77;;
71230;Laerm;57282;52.514;13.458;2022-08-30T02:25:06;61.35;30.86;81.04;;
71230;Laerm;57282;52.514;13.458;2022-08-30T02:27:36;57.18;30.93;76.42;;
71230;Laerm;57282;52.514;13.458;2022-08-30T02:30:07;36.67;30.70;45.25;;
71230;Laerm;57282;52.514;13.458;2022-08-30T02:32:35;58.20;32.07;78.46;;
71230;Laerm;57282;52.514;13.458;2022-08-30T02:35:02;54.85;31.31;74.27;;
71230;Laerm;57282;52.514;13.458;2022-08-30T02:37:30;57.30;30.61;78.28;;
71230;Laerm;57282;52.514;13.458;2022-08-30T02:39:57;62.25;33.37;78.48;;
71230;Laerm;57282;52.514;13.458;2022-08-30T02:42:26;55.77;36.86;73.69;;
71230;Laerm;57282;52.514;13.458;2022-08-30T02:44:53;57.46;34.54;74.69;;
71230;Laerm;57282;52.514;13.458;2022-08-30T02:47:22;51.97;32.29;67.55;;
71230;Laerm;57282;52.514;13.458;2022-08-30T02:49:49;58.65;31.34;76.92;;
71230;Laerm;57282;52.514;13.458;2022-08-30T02:52:17;51.25;33.07;69.44;;
71230;Laerm;57282;52.514;13.458;2022-08-30T02:54:44;53.85;33.21;73.85;;
71230;Laerm;57282;52.514;13.458;2022-08-30T02:57:11;56.03;33.86;74.63;;
71230;Laerm;57282;52.514;13.458;2022-08-30T02:59:39;62.03;36.54;78.98;;
71230;Laerm;57282;52.514;13.458;2022-08-30T03:02:09;56.59;34.61;71.80;;
71230;Laerm;57282;52.514;13.458;2022-08-30T03:04:37;61.83;32.87;78.81;;
71230;Laerm;57282;52.514;13.458;2022-08-30T03:07:04;52.60;34.20;68.41;;
71230;Laerm;57282;52.514;13.458;2022-08-30T03:09:32;56.36;31.75;76.25;;
71230;Laerm;57282;52.514;13.458;2022-08-30T03:11:59;59.30;34.29;76.73;;
71230;Laerm;57282;52.514;13.458;2022-08-30T03:14:26;63.12;39.24;80.13;;
71230;Laerm;57282;52.514;13.458;2022-08-30T03:16:52;55.25;34.67;69.39;;
71230;Laerm;57282;52.514;13.458;2022-08-30T03:19:24;61.95;37.89;79.29;;
71230;Laerm;57282;52.514;13.458;2022-08-30T03:21:52;46.16;37.52;62.68;;
71230;Laerm;57282;52.514;13.458;2022-08-30T03:24:19;60.06;34.95;77.93;;
71230;Laerm;57282;52.514;13.458;2022-08-30T03:26:46;59.90;41.21;78.43;;
71230;Laerm;57282;52.514;13.458;2022-08-30T03:29:13;67.46;38.47;87.40;;
71230;Laerm;57282;52.514;13.458;2022-08-30T03:31:40;45.14;34.60;59.15;;
71230;Laerm;57282;52.514;13.458;2022-08-30T03:34:07;59.45;38.84;77.11;;
71230;Laerm;57282;52.514;13.458;2022-08-30T03:36:35;64.08;42.02;81.57;;
71230;Laerm;57282;52.514;13.458;2022-08-30T03:39:03;66.03;43.49;84.90;;
71230;Laerm;57282;52.514;13.458;2022-08-30T03:41:31;56.22;38.05;74.31;;
71230;Laerm;57282;52.514;13.458;2022-08-30T03:43:58;64.68;40.08;81.21;;
71230;Laerm;57282;52.514;13.458;2022-08-30T03:46:25;61.08;40.03;75.52;;
71230;Laerm;57282;52.514;13.458;2022-08-30T03:48:53;61.44;38.11;79.07;;
71230;Laerm;57282;52.514;13.458;2022-08-30T03:51:21;66.23;40.89;83.57;;
71230;Laerm;57282;52.514;13.458;2022-08-30T03:53:48;63.12;38.36;79.31;;
71230;Laerm;57282;52.514;13.458;2022-08-30T03:56:18;66.52;40.63;85.36;;
71230;Laerm;57282;52.514;13.458;2022-08-30T03:58:45;61.38;38.74;78.30;;
71230;Laerm;57282;52.514;13.458;2022-08-30T04:01:13;63.48;42.35;78.34;;
71230;Laerm;57282;52.514;13.458;2022-08-30T04:03:40;60.00;40.67;76.33;;
71230;Laerm;57282;52.514;13.458;2022-08-30T04:06:06;61.35;41.56;75.11;;
71230;Laerm;57282;52.514;13.458;2022-08-30T04:08:33;65.87;44.13;79.48;;
71230;Laerm;57282;52.514;13.458;2022-08-30T04:11:00;64.90;57.81;78.13;;
71230;Laerm;57282;52.514;13.458;2022-08-30T04:13:30;64.27;53.76;76.52;;
71230;Laerm;57282;52.514;13.458;2022-08-30T04:15:58;62.41;49.70;77.07;;
71230;Laerm;57282;52.514;13.458;2022-08-30T04:18:25;64.02;48.41;78.46;;
71230;Laerm;57282;52.514;13.458;2022-08-30T04:20:52;62.57;43.36;75.80;;
71230;Laerm;57282;52.514;13.458;2022-08-30T04:23:19;68.64;40.21;82.94;;
71230;Laerm;57282;52.514;13.458;2022-08-30T04:25:47;66.18;40.15;78.79;;
71230;Laerm;57282;52.514;13.458;2022-08-30T04:28:14;64.06;41.82;76.75;;
71230;Laerm;57282;52.514;13.458;2022-08-30T04:30:44;67.43;47.52;79.68;;
71230;Laerm;57282;52.514;13.458;2022-08-30T04:33:13;63.90;41.71;79.34;;
71230;Laerm;57282;52.514;13.458;2022-08-30T04:35:41;62.94;42.95;78.68;;
71230;Laerm;57282;52.514;13.458;2022-08-30T04:38:09;67.22;48.46;80.92;;
71230;Laerm;57282;52.514;13.458;2022-08-30T04:40:36;65.52;43.51;81.07;;
71230;Laerm;57282;52.514;13.458;2022-08-30T04:43:03;64.42;42.53;78.24;;
71230;Laerm;57282;52.514;13.458;2022-08-30T04:45:30;66.27;44.67;79.91;;
71230;Laerm;57282;52.514;13.458;2022-08-30T04:47:59;67.14;48.19;81.85;;
71230;Laerm;57282;52.514;13.458;2022-08-30T04:50:26;64.21;44.77;76.02;;
71230;Laerm;57282;52.514;13.458;2022-08-30T04:52:53;66.01;47.23;78.79;;
71230;Laerm;57282;52.514;13.458;2022-08-30T04:55:20;67.73;45.40;80.69;;
71230;Laerm;57282;52.514;13.458;2022-08-30T04:57:49;62.89;44.51;77.60;;
71230;Laerm;57282;52.514;13.458;2022-08-30T05:00:17;64.64;47.45;75.80;;
71230;Laerm;57282;52.514;13.458;2022-08-30T05:02:46;64.24;41.87;79.02;;
71230;Laerm;57282;52.514;13.458;2022-08-30T05:05:15;67.32;43.42;82.63;;
71230;Laerm;57282;52.514;13.458;2022-08-30T05:08:00;66.15;45.99;77.93;;
71230;Laerm;57282;52.514;13.458;2022-08-30T05:10:31;64.45;43.96;77.11;;
71230;Laerm;57282;52.514;13.458;2022-08-30T05:12:58;70.22;44.90;84.84;;
71230;Laerm;57282;52.514;13.458;2022-08-30T05:15:25;65.11;45.43;80.22;;
71230;Laerm;57282;52.514;13.458;2022-08-30T05:17:52;66.70;41.64;80.52;;
71230;Laerm;57282;52.514;13.458;2022-08-30T05:20:20;63.16;43.01;79.00;;
71230;Laerm;57282;52.514;13.458;2022-08-30T05:22:47;63.67;45.73;77.86;;
71230;Laerm;57282;52.514;13.458;2022-08-30T05:25:17;66.14;42.26;80.49;;
71230;Laerm;57282;52.514;13.458;2022-08-30T05:27:45;65.02;43.32;76.66;;
71230;Laerm;57282;52.514;13.458;2022-08-30T05:30:13;60.73;43.77;76.86;;
71230;Laerm;57282;52.514;13.458;2022-08-30T05:32:40;64.36;45.79;76.77;;
71230;Laerm;57282;52.514;13.458;2022-08-30T05:35:10;66.06;46.01;77.34;;
71230;Laerm;57282;52.514;13.458;2022-08-30T05:37:39;66.04;45.79;77.79;;
71230;Laerm;57282;52.514;13.458;2022-08-30T05:40:07;64.72;47.73;76.34;;
71230;Laerm;57282;52.514;13.458;2022-08-30T05:42:35;65.97;46.78;78.42;;
71230;Laerm;57282;52.514;13.458;2022-08-30T05:45:07;65.81;46.53;76.74;;
71230;Laerm;57282;52.514;13.458;2022-08-30T05:47:36;67.91;48.32;83.29;;
71230;Laerm;57282;52.514;13.458;2022-08-30T05:50:07;63.98;41.28;76.05;;
71230;Laerm;57282;52.514;13.458;2022-08-30T05:52:35;66.09;48.91;79.17;;
71230;Laerm;57282;52.514;13.458;2022-08-30T05:55:06;66.69;44.99;79.81;;
71230;Laerm;57282;52.514;13.458;2022-08-30T05:57:35;63.30;42.71;75.57;;
71230;Laerm;57282;52.514;13.458;2022-08-30T06:00:07;66.67;45.39;77.91;;
71230;Laerm;57282;52.514;13.458;2022-08-30T06:02:34;65.26;45.07;78.93;;
71230;Laerm;57282;52.514;13.458;2022-08-30T06:05:02;64.49;42.10;77.18;;
71230;Laerm;57282;52.514;13.458;2022-08-30T06:07:30;65.31;41.95;77.16;;
71230;Laerm;57282;52.514;13.458;2022-08-30T06:09:58;63.77;45.25;75.77;;
71230;Laerm;57282;52.514;13.458;2022-08-30T06:12:26;66.27;52.81;84.81;;
71230;Laerm;57282;52.514;13.458;2022-08-30T06:14:53;65.96;49.40;82.50;;
71230;Laerm;57282;52.514;13.458;2022-08-30T06:17:20;65.22;46.16;83.77;;
71230;Laerm;57282;52.514;13.458;2022-08-30T06:19:47;66.38;43.61;82.65;;
71230;Laerm;57282;52.514;13.458;2022-08-30T06:22:14;65.42;50.96;88.60;;
71230;Laerm;57282;52.514;13.458;2022-08-30T06:24:40;65.49;57.41;74.26;;
71230;Laerm;57282;52.514;13.458;2022-08-30T06:27:09;65.12;56.72;75.76;;
71230;Laerm;57282;52.514;13.458;2022-08-30T06:29:38;65.99;55.07;78.54;;
71230;Laerm;57282;52.514;13.458;2022-08-30T06:32:05;66.60;56.04;78.60;;
71230;Laerm;57282;52.514;13.458;2022-08-30T06:34:32;70.68;57.09;80.41;;
71230;Laerm;57282;52.514;13.458;2022-08-30T06:36:59;64.68;55.39;76.11;;
71230;Laerm;57282;52.514;13.458;2022-08-30T06:39:26;65.52;56.67;77.60;;
71230;Laerm;57282;52.514;13.458;2022-08-30T06:41:53;66.22;60.43;80.76;;
71230;Laerm;57282;52.514;13.458;2022-08-30T06:44:21;69.51;61.47;88.35;;
71230;Laerm;57282;52.514;13.458;2022-08-30T06:46:49;69.99;61.36;82.03;;
71230;Laerm;57282;52.514;13.458;2022-08-30T06:49:16;72.36;60.72;78.13;;
71230;Laerm;57282;52.514;13.458;2022-08-30T06:51:45;66.41;53.25;83.54;;
71230;Laerm;57282;52.514;13.458;2022-08-30T06:54:12;62.09;54.11;78.52;;
71230;Laerm;57282;52.514;13.458;2022-08-30T06:56:40;63.64;50.00;77.16;;
71230;Laerm;57282;52.514;13.458;2022-08-30T06:59:09;70.15;62.01;77.94;;
71230;Laerm;57282;52.514;13.458;2022-08-30T07:01:36;66.42;57.21;80.17;;
71230;Laerm;57282;52.514;13.458;2022-08-30T07:04:04;66.86;51.70;81.69;;
71230;Laerm;57282;52.514;13.458;2022-08-30T07:06:32;63.86;42.20;79.41;;
71230;Laerm;57282;52.514;13.458;2022-08-30T07:08:59;64.55;44.71;78.84;;
71230;Laerm;57282;52.514;13.458;2022-08-30T07:11:32;63.52;45.91;76.18;;
71230;Laerm;57282;52.514;13.458;2022-08-30T07:14:01;62.79;50.37;74.27;;
71230;Laerm;57282;52.514;13.458;2022-08-30T07:16:29;63.51;45.52;76.11;;
71230;Laerm;57282;52.514;13.458;2022-08-30T07:18:57;66.00;50.13;76.48;;
71230;Laerm;57282;52.514;13.458;2022-08-30T07:21:28;65.07;48.14;75.76;;
71230;Laerm;57282;52.514;13.458;2022-08-30T07:23:58;65.50;47.61;79.78;;
71230;Laerm;57282;52.514;13.458;2022-08-30T07:26:29;65.37;53.66;76.41;;
71230;Laerm;57282;52.514;13.458;2022-08-30T07:28:57;64.84;43.32;78.29;;
71230;Laerm;57282;52.514;13.458;2022-08-30T07:31:25;62.37;44.84;79.50;;
71230;Laerm;57282;52.514;13.458;2022-08-30T07:33:52;64.27;41.94;78.05;;
71230;Laerm;57282;52.514;13.458;2022-08-30T07:36:20;61.37;42.97;73.43;;
71230;Laerm;57282;52.514;13.458;2022-08-30T07:38:50;65.14;43.33;78.95;;
71230;Laerm;57282;52.514;13.458;2022-08-30T07:41:23;65.89;46.06;76.47;;
71230;Laerm;57282;52.514;13.458;2022-08-30T07:43:50;64.64;44.04;77.45;;
71230;Laerm;57282;52.514;13.458;2022-08-30T07:46:18;60.44;46.65;77.07;;
71230;Laerm;57282;52.514;13.458;2022-08-30T07:48:46;63.98;45.62;82.13;;
71230;Laerm;57282;52.514;13.458;2022-08-30T07:51:15;64.89;44.42;77.15;;
71230;Laerm;57282;52.514;13.458;2022-08-30T07:53:43;66.50;48.20;79.21;;
71230;Laerm;57282;52.514;13.458;2022-08-30T07:56:12;65.17;48.59;78.97;;
71230;Laerm;57282;52.514;13.458;2022-08-30T07:58:38;65.00;46.28;78.37;;
71230;Laerm;57282;52.514;13.458;2022-08-30T08:01:07;66.34;45.49;79.98;;
71230;Laerm;57282;52.514;13.458;2022-08-30T08:03:36;65.50;46.92;77.23;;
71230;Laerm;57282;52.514;13.458;2022-08-30T08:06:06;62.86;41.90;76.31;;
71230;Laerm;57282;52.514;13.458;2022-08-30T08:08:35;66.07;46.89;79.55;;
71230;Laerm;57282;52.514;13.458;2022-08-30T08:11:06;66.11;45.33;80.37;;
71230;Laerm;57282;52.514;13.458;2022-08-30T08:13:36;66.74;46.08;80.77;;
71230;Laerm;57282;52.514;13.458;2022-08-30T08:16:03;63.60;41.40;79.98;;
71230;Laerm;57282;52.514;13.458;2022-08-30T08:18:30;67.39;50.77;80.48;;
71230;Laerm;57282;52.514;13.458;2022-08-30T08:20:59;65.40;51.03;77.04;;
71230;Laerm;57282;52.514;13.458;2022-08-30T08:23:26;65.04;45.71;78.76;;
71230;Laerm;57282;52.514;13.458;2022-08-30T08:25:53;66.99;48.52;80.75;;
71230;Laerm;57282;52.514;13.458;2022-08-30T08:28:21;64.89;49.13;74.94;;
71230;Laerm;57282;52.514;13.458;2022-08-30T08:30:54;64.31;48.64;76.30;;
71230;Laerm;57282;52.514;13.458;2022-08-30T08:33:22;63.10;44.59;80.64;;
71230;Laerm;57282;52.514;13.458;2022-08-30T08:35:49;66.09;49.28;81.28;;
71230;Laerm;57282;52.514;13.458;2022-08-30T08:38:15;62.53;45.18;78.41;;
71230;Laerm;57282;52.514;13.458;2022-08-30T08:40:54;66.74;47.28;81.52;;
71230;Laerm;57282;52.514;13.458;2022-08-30T08:43:25;66.46;47.20;77.76;;
71230;Laerm;57282;52.514;13.458;2022-08-30T08:46:01;62.62;46.45;76.50;;
71230;Laerm;57282;52.514;13.458;2022-08-30T08:48:34;64.57;52.27;80.08;;
71230;Laerm;57282;52.514;13.458;2022-08-30T08:51:09;68.01;51.02;78.76;;
71230;Laerm;57282;52.514;13.458;2022-08-30T08:54:00;67.50;50.50;87.80;;
71230;Laerm;57282;52.514;13.458;2022-08-30T08:56:29;66.48;52.28;77.15;;
71230;Laerm;57282;52.514;13.458;2022-08-30T08:58:58;66.20;48.57;79.43;;
71230;Laerm;57282;52.514;13.458;2022-08-30T09:01:29;66.46;47.17;77.63;;
71230;Laerm;57282;52.514;13.458;2022-08-30T09:04:00;68.01;43.94;94.39;;
71230;Laerm;57282;52.514;13.458;2022-08-30T09:06:56;63.91;44.88;78.06;;
71230;Laerm;57282;52.514;13.458;2022-08-30T09:09:30;65.83;39.57;88.81;;
71230;Laerm;57282;52.514;13.458;2022-08-30T09:11:57;66.81;44.35;82.00;;
71230;Laerm;57282;52.514;13.458;2022-08-30T09:14:29;65.28;46.99;82.14;;
71230;Laerm;57282;52.514;13.458;2022-08-30T09:17:01;61.53;46.47;76.47;;
71230;Laerm;57282;52.514;13.458;2022-08-30T09:19:36;65.74;44.20;78.99;;
71230;Laerm;57282;52.514;13.458;2022-08-30T09:22:14;64.09;44.43;77.74;;
71230;Laerm;57282;52.514;13.458;2022-08-30T09:24:45;65.78;43.58;87.15;;
71230;Laerm;57282;52.514;13.458;2022-08-30T09:27:18;65.54;44.43;75.58;;
71230;Laerm;57282;52.514;13.458;2022-08-30T09:30:03;64.09;43.34;75.01;;
71230;Laerm;57282;52.514;13.458;2022-08-30T09:32:37;65.08;44.37;78.97;;
71230;Laerm;57282;52.514;13.458;2022-08-30T09:35:11;62.91;42.94;74.63;;
71230;Laerm;57282;52.514;13.458;2022-08-30T09:37:50;63.44;49.70;73.56;;
71230;Laerm;57282;52.514;13.458;2022-08-30T09:40:26;61.34;48.68;73.31;;
71230;Laerm;57282;52.514;13.458;2022-08-30T09:43:08;64.33;52.81;76.35;;
71230;Laerm;57282;52.514;13.458;2022-08-30T09:45:41;66.36;52.29;78.57;;
71230;Laerm;57282;52.514;13.458;2022-08-30T09:48:29;64.76;51.81;79.99;;
71230;Laerm;57282;52.514;13.458;2022-08-30T09:51:22;64.59;49.20;78.16;;
71230;Laerm;57282;52.514;13.458;2022-08-30T09:54:05;63.47;50.01;78.47;;
71230;Laerm;57282;52.514;13.458;2022-08-30T09:56:42;64.25;50.80;77.10;;
71230;Laerm;57282;52.514;13.458;2022-08-30T09:59:34;64.43;51.59;74.26;;
71230;Laerm;57282;52.514;13.458;2022-08-30T10:05:12;64.14;50.60;80.11;;
71230;Laerm;57282;52.514;13.458;2022-08-30T10:07:49;65.42;53.88;76.12;;
71230;Laerm;57282;52.514;13.458;2022-08-30T10:10:30;64.66;49.33;76.01;;
71230;Laerm;57282;52.514;13.458;2022-08-30T10:13:16;62.88;45.78;74.04;;
71230;Laerm;57282;52.514;13.458;2022-08-30T10:15:54;64.80;44.23;77.54;;
71230;Laerm;57282;52.514;13.458;2022-08-30T10:18:30;64.73;51.12;76.28;;
71230;Laerm;57282;52.514;13.458;2022-08-30T10:21:10;65.41;53.55;75.43;;
71230;Laerm;57282;52.514;13.458;2022-08-30T10:23:44;65.56;49.17;78.40;;
71230;Laerm;57282;52.514;13.458;2022-08-30T10:26:23;65.11;51.98;75.67;;
71230;Laerm;57282;52.514;13.458;2022-08-30T10:28:58;65.46;49.40;86.26;;
71230;Laerm;57282;52.514;13.458;2022-08-30T10:31:35;63.23;50.21;76.52;;
71230;Laerm;57282;52.514;13.458;2022-08-30T10:34:09;62.44;43.81;73.82;;
71230;Laerm;57282;52.514;13.458;2022-08-30T10:36:50;62.60;44.94;73.98;;
71230;Laerm;57282;52.514;13.458;2022-08-30T10:39:25;65.04;44.25;78.05;;
71230;Laerm;57282;52.514;13.458;2022-08-30T10:42:03;62.13;45.05;75.49;;
71230;Laerm;57282;52.514;13.458;2022-08-30T10:44:36;61.41;43.89;73.69;;
71230;Laerm;57282;52.514;13.458;2022-08-30T10:47:19;65.32;43.51;77.58;;
71230;Laerm;57282;52.514;13.458;2022-08-30T10:49:56;65.02;47.61;77.85;;
71230;Laerm;57282;52.514;13.458;2022-08-30T10:52:35;67.87;49.83;89.68;;
71230;Laerm;57282;52.514;13.458;2022-08-30T10:55:10;65.72;52.04;77.88;;
71230;Laerm;57282;52.514;13.458;2022-08-30T10:57:40;66.46;49.65;76.76;;
71230;Laerm;57282;52.514;13.458;2022-08-30T11:00:11;63.62;48.18;74.64;;
71230;Laerm;57282;52.514;13.458;2022-08-30T11:06:04;72.15;52.07;86.70;;
71230;Laerm;57282;52.514;13.458;2022-08-30T11:09:00;64.96;50.52;79.54;;
71230;Laerm;57282;52.514;13.458;2022-08-30T11:11:50;64.55;45.63;77.12;;
71230;Laerm;57282;52.514;13.458;2022-08-30T11:14:21;65.11;44.89;77.17;;
71230;Laerm;57282;52.514;13.458;2022-08-30T11:16:50;65.88;52.16;78.96;;
71230;Laerm;57282;52.514;13.458;2022-08-30T11:19:24;65.40;51.58;78.25;;
71230;Laerm;57282;52.514;13.458;2022-08-30T11:22:08;66.10;47.65;78.87;;
71230;Laerm;57282;52.514;13.458;2022-08-30T11:25:09;66.66;49.16;79.74;;
71230;Laerm;57282;52.514;13.458;2022-08-30T11:27:54;64.12;47.13;75.06;;
71230;Laerm;57282;52.514;13.458;2022-08-30T11:30:49;63.76;46.97;76.75;;
71230;Laerm;57282;52.514;13.458;2022-08-30T11:33:41;64.33;49.08;75.98;;
71230;Laerm;57282;52.514;13.458;2022-08-30T11:36:12;64.89;45.10;78.91;;
71230;Laerm;57282;52.514;13.458;2022-08-30T11:39:05;63.73;43.26;75.53;;
71230;Laerm;57282;52.514;13.458;2022-08-30T11:41:37;62.71;42.20;77.59;;
71230;Laerm;57282;52.514;13.458;2022-08-30T11:44:30;65.00;47.77;78.91;;
71230;Laerm;57282;52.514;13.458;2022-08-30T11:47:00;65.03;44.87;76.93;;
71230;Laerm;57282;52.514;13.458;2022-08-30T11:49:50;63.51;43.70;76.21;;
71230;Laerm;57282;52.514;13.458;2022-08-30T11:52:35;64.33;46.16;78.80;;
71230;Laerm;57282;52.514;13.458;2022-08-30T11:55:31;63.62;44.15;77.71;;
71230;Laerm;57282;52.514;13.458;2022-08-30T11:58:16;64.17;45.46;80.27;;
71230;Laerm;57282;52.514;13.458;2022-08-30T12:00:47;63.31;46.13;75.03;;
71230;Laerm;57282;52.514;13.458;2022-08-30T12:03:32;63.85;43.92;76.23;;
71230;Laerm;57282;52.514;13.458;2022-08-30T12:06:02;61.57;47.73;80.29;;
71230;Laerm;57282;52.514;13.458;2022-08-30T12:08:46;63.68;45.06;77.94;;
71230;Laerm;57282;52.514;13.458;2022-08-30T12:11:55;66.61;54.24;79.10;;
71230;Laerm;57282;52.514;13.458;2022-08-30T12:14:51;65.33;51.67;76.81;;
71230;Laerm;57282;52.514;13.458;2022-08-30T12:17:46;64.50;49.03;86.64;;
71230;Laerm;57282;52.514;13.458;2022-08-30T12:20:42;64.93;47.32;79.34;;
71230;Laerm;57282;52.514;13.458;2022-08-30T12:23:18;63.95;44.99;85.20;;
71230;Laerm;57282;52.514;13.458;2022-08-30T12:25:46;65.18;52.73;80.71;;
71230;Laerm;57282;52.514;13.458;2022-08-30T12:28:21;64.89;43.98;82.77;;
71230;Laerm;57282;52.514;13.458;2022-08-30T12:30:51;65.99;44.25;82.63;;
71230;Laerm;57282;52.514;13.458;2022-08-30T12:33:37;62.60;46.22;85.66;;
71230;Laerm;57282;52.514;13.458;2022-08-30T12:36:05;61.98;46.02;74.00;;
71230;Laerm;57282;52.514;13.458;2022-08-30T12:38:33;63.75;47.44;75.80;;
71230;Laerm;57282;52.514;13.458;2022-08-30T12:41:01;64.08;45.59;77.68;;
71230;Laerm;57282;52.514;13.458;2022-08-30T12:43:32;66.58;47.26;83.46;;
71230;Laerm;57282;52.514;13.458;2022-08-30T12:46:08;65.70;50.53;77.99;;
71230;Laerm;57282;52.514;13.458;2022-08-30T12:48:39;66.63;50.62;78.99;;
71230;Laerm;57282;52.514;13.458;2022-08-30T12:51:07;66.20;44.75;78.29;;
71230;Laerm;57282;52.514;13.458;2022-08-30T12:53:38;65.30;42.56;81.54;;
71230;Laerm;57282;52.514;13.458;2022-08-30T12:56:10;65.07;44.25;77.05;;
71230;Laerm;57282;52.514;13.458;2022-08-30T12:58:42;63.48;49.37;74.95;;
71230;Laerm;57282;52.514;13.458;2022-08-30T13:01:22;66.01;49.06;81.39;;
71230;Laerm;57282;52.514;13.458;2022-08-30T13:03:58;64.14;43.67;78.50;;
71230;Laerm;57282;52.514;13.458;2022-08-30T13:06:42;64.49;42.66;74.37;;
71230;Laerm;57282;52.514;13.458;2022-08-30T13:09:24;64.55;46.33;77.77;;
71230;Laerm;57282;52.514;13.458;2022-08-30T13:11:53;65.55;45.75;76.49;;
71230;Laerm;57282;52.514;13.458;2022-08-30T13:14:32;65.75;49.19;79.68;;
71230;Laerm;57282;52.514;13.458;2022-08-30T13:17:18;65.39;50.21;81.38;;
71230;Laerm;57282;52.514;13.458;2022-08-30T13:19:57;63.06;44.86;73.85;;
71230;Laerm;57282;52.514;13.458;2022-08-30T13:22:28;64.99;44.68;75.76;;
71230;Laerm;57282;52.514;13.458;2022-08-30T13:24:56;65.35;46.14;77.89;;
71230;Laerm;57282;52.514;13.458;2022-08-30T13:27:24;65.69;50.54;81.94;;
71230;Laerm;57282;52.514;13.458;2022-08-30T13:29:52;64.47;50.66;75.51;;
71230;Laerm;57282;52.514;13.458;2022-08-30T13:32:20;65.37;49.05;87.43;;
71230;Laerm;57282;52.514;13.458;2022-08-30T13:34:47;64.71;43.46;74.35;;
71230;Laerm;57282;52.514;13.458;2022-08-30T13:37:18;65.39;47.97;76.52;;
71230;Laerm;57282;52.514;13.458;2022-08-30T13:39:45;63.14;44.33;77.67;;
71230;Laerm;57282;52.514;13.458;2022-08-30T13:42:12;61.62;44.72;74.36;;
71230;Laerm;57282;52.514;13.458;2022-08-30T13:44:40;67.02;48.37;76.71;;
71230;Laerm;57282;52.514;13.458;2022-08-30T13:47:08;66.30;48.14;77.83;;
71230;Laerm;57282;52.514;13.458;2022-08-30T13:49:37;67.72;53.00;80.45;;
71230;Laerm;57282;52.514;13.458;2022-08-30T13:52:09;65.48;45.67;84.91;;
71230;Laerm;57282;52.514;13.458;2022-08-30T13:54:36;66.29;48.08;78.36;;
71230;Laerm;57282;52.514;13.458;2022-08-30T13:57:04;66.76;50.69;77.50;;
71230;Laerm;57282;52.514;13.458;2022-08-30T13:59:31;67.24;46.10;82.59;;
71230;Laerm;57282;52.514;13.458;2022-08-30T14:02:00;63.57;42.76;74.36;;